CYQF

Red Deer Regional Airport

Red Deer, Alberta, Canada
METAR CYQF 131100Z 19011G16KT 15SM OVC170 M00/M08 A2957 RMK AC8 SLP052
Observed Flight Rules
Dec-13 @ 11:00 UTC (45 minutes ago) Visual Flight Rules
Wind Visibility Clouds
190° at 11 knots
 Gusting to 16 knots
15 miles
  • Overcast at 17,000' AGL
Temperatures Readings
Current 0°C / 32°F
Dewpoint -8°C / 18°F
Humidity 55%
Altimeter 29.57" Hg
Pressure 1005.2 hPa
Elevation 905
METAR CYQF 131100Z 19011G16KT 15SM OVC170 M00/M08 A2957 RMK AC8 SLP052
Observed Flight Rules
Dec-13 @ 11:00 UTC
(45 minutes ago)
VFR
Wind Visibility
190° at 11 knots
 Gusting to 16 knots
15 miles
Clouds
  • Overcast at 17,000' AGL
Temperature Dewpoint
0°C / 32°F -8°C / 18°F
Humidity Altimeter Pressure
55% 29.57" Hg 1005.2 hPa